Terminal Aerodrome Forecast
Issued by NWS

Home | Current Version | Previous Version | Text Only | Print | Product List | Glossary On
Versions: 1 2 3 4 5 6 7 8 9 10 11 12 13
000
FTUS45 KTFX 221100
TAFBZN
TAF
KBZN 221122Z 2212/2312 28008KT P6SM VCSH OVC050
      TEMPO 2218/2222 27012G20KT
     FM230000 VRB06KT P6SM SCT025 BKN050=

USA.gov is the U.S. government's official web portal to all federal, state and local government web resources and services.